M I D A S
Marine Information and Data Acquisition System
Tripno 486 of the Zeeleeuw from 2003-05-07 06:49:26 to 2003-05-08 14:45:34
Back to CruiseResearch ActivitiesStationsMapUnderway DataData graphs

EquipmentUnitsComment
TimeDGPSUTC
LatitudeDGPSDM.mWGS84
LongitudeDGPSDM.mWGS84
HeadingGyrodeg 
SOGDGPSknotsSpeed over ground
COGDGPSdegCourse over ground
DepthEcho soundermeters200 kHz
Missing or incorrect values are displayed as -999
Navigation data collected by the RV Zeeleeuw from 2003-05-07 06:49:26 to 2003-05-08 14:45:34
                                                                                    Next 1000 lines
Time Latitude Longitude Heading SOG COG Depth
2003-05-07 06:49:32 51°13.6 2°56.11 126.8   83 5.7
2003-05-07 06:49:36 51°13.6 2°56.11 125.6 0.1 191 7.8
2003-05-07 06:49:42 51°13.6 2°56.11 125   43 7.8
2003-05-07 06:49:48 51°13.6 2°56.11 124.5 0.1 202 7.8
2003-05-07 06:49:52 51°13.6 2°56.11 124.1   67 7.8
2003-05-07 06:49:56 51°13.6 2°56.11 123.3 0.1 179 7.7
2003-05-07 06:50:02 51°13.6 2°56.1 122.5   109 7.8
2003-05-07 06:50:08 51°13.6 2°56.1 121.9 0.1 201 7.8
2003-05-07 06:50:12 51°13.6 2°56.11 121.2 0.1 190 7.8
2003-05-07 06:50:16 51°13.6 2°56.11 120.4   186 7.8
2003-05-07 06:50:22 51°13.6 2°56.11 119.9 0.1 189 7.8
2003-05-07 06:50:28 51°13.6 2°56.11 119.3   183 7.9
2003-05-07 06:50:32 51°13.6 2°56.1 118.7   194 7.9
2003-05-07 06:50:36 51°13.6 2°56.1 118.1   195 7.8
2003-05-07 06:50:42 51°13.6 2°56.11 117.5 0.2 166 7.9
2003-05-07 06:50:48 51°13.6 2°56.1 116.8   186 7.9
2003-05-07 06:50:52 51°13.6 2°56.1 116.4 0.1 196 7.9
2003-05-07 06:50:56 51°13.6 2°56.1 115.9   185 7.8
2003-05-07 06:51:02 51°13.6 2°56.1 115.4 0.1 194 7.9
2003-05-07 06:51:08 51°13.6 2°56.1 115   178 7.9
2003-05-07 06:51:12 51°13.6 2°56.1 114.6   193 7.9
2003-05-07 06:51:16 51°13.6 2°56.1 114.2   192 7.9
2003-05-07 06:51:22 51°13.6 2°56.1 113.9 0.1 185 7.9
2003-05-07 06:51:26 51°13.6 2°56.1 113.5 0.1 190 7.8
2003-05-07 06:51:32 51°13.6 2°56.1 113.2   182 7.9
2003-05-07 06:51:36 51°13.6 2°56.1 112.6 0.1 186 7.9
2003-05-07 06:51:42 51°13.6 2°56.1 112.2   191 7.9
2003-05-07 06:51:48 51°13.6 2°56.1 111.7 0.1 192 8
2003-05-07 06:51:52 51°13.6 2°56.1 111.4   282 7.9
2003-05-07 06:51:56 51°13.6 2°56.1 111 0.1 280 7.8
2003-05-07 06:52:02 51°13.6 2°56.1 111 0.3 294 7.8
2003-05-07 06:52:08 51°13.6 2°56.1 111 0.7 291 7.9
2003-05-07 06:52:12 51°13.6 2°56.1 111 1 290 7.9
2003-05-07 06:52:16 51°13.6 2°56.1 111 1.5 293 8
2003-05-07 06:52:22 51°13.6 2°56.09 111.3 1.7 292 8.2
2003-05-07 06:52:28 51°13.61 2°56.09 111.7 2.1 293 -999
2003-05-07 06:52:34 51°13.61 2°56.08 111.7 2.4 293 -999
2003-05-07 06:52:38 51°13.61 2°56.08 111.7 2.6 292 -999
2003-05-07 06:52:44 51°13.61 2°56.07 111.7 2.8 292 -999
2003-05-07 06:52:50 51°13.61 2°56.06 111.7 3 291 -999
2003-05-07 06:52:56 51°13.61 2°56.06 111.7 3.1 292 -999
2003-05-07 06:53:02 51°13.62 2°56.05 111.8 3.2 291 -999
2003-05-07 06:53:08 51°13.62 2°56.04 111.9 3.3 291 -999
2003-05-07 06:53:12 51°13.62 2°56.04 111.9 3.4 291 -999
2003-05-07 06:53:18 51°13.62 2°56.03 111.9 3.6 290 -999
2003-05-07 06:53:22 51°13.62 2°56.02 111.8 3.7 290 -999
2003-05-07 06:53:28 51°13.62 2°56.01 111.7 3.8 289 -999
2003-05-07 06:53:32 51°13.63 2°56 111.7 3.9 289 -999
2003-05-07 06:53:38 51°13.63 2°55.99 112.2 4 289 -999
2003-05-07 06:53:42 51°13.63 2°55.99 112.6 4.1 290 -999
2003-05-07 06:53:48 51°13.63 2°55.98 113 4.2 288 -999
2003-05-07 06:53:52 51°13.63 2°55.97 113.5 4.3 289 -999
2003-05-07 06:53:58 51°13.64 2°55.96 113.9 4.4 290 -999
2003-05-07 06:54:02 51°13.64 2°55.95 114.4 4.4 291 -999
2003-05-07 06:54:08 51°13.64 2°55.94 114.8 4.5 292 -999
2003-05-07 06:54:12 51°13.64 2°55.94 115.1 4.6 292 -999
2003-05-07 06:54:18 51°13.65 2°55.92 115.4 4.6 292 -999
2003-05-07 06:54:22 51°13.65 2°55.92 115.4 4.6 292 -999
2003-05-07 06:54:28 51°13.65 2°55.9 115.4 4.6 293 -999
2003-05-07 06:54:32 51°13.65 2°55.9 115.2 4.6 292 -999
2003-05-07 06:54:36 51°13.65 2°55.89 114.6 4.5 291 -999
2003-05-07 06:54:42 51°13.66 2°55.88 114.1 4.4 292 -999
2003-05-07 06:54:48 51°13.66 2°55.87 113.6 4.3 292 -999
2003-05-07 06:54:52 51°13.66 2°55.86 112.9 4.2 291 -999
2003-05-07 06:54:58 51°13.66 2°55.85 112 4.1 291 -999
2003-05-07 06:55:02 51°13.67 2°55.84 111.1 4 290 -999
2003-05-07 06:55:08 51°13.67 2°55.83 110.3 3.8 290 -999
2003-05-07 06:55:12 51°13.67 2°55.83 109 3.7 288 -999
2003-05-07 06:55:16 51°13.67 2°55.82 107.7 3.6 288 -999
2003-05-07 06:55:22 51°13.67 2°55.81 106.3 3.4 286 -999
2003-05-07 06:55:26 51°13.67 2°55.81 105.2 3.3 286 9.2
2003-05-07 06:55:32 51°13.68 2°55.8 104.5 3.2 284 9.3
2003-05-07 06:55:36 51°13.68 2°55.79 103.3 3 285 9.4
2003-05-07 06:55:40 51°13.68 2°55.79 102.3 2.8 282 9.5
2003-05-07 06:55:46 51°13.68 2°55.78 100.6 2.3 283 10
2003-05-07 06:55:50 51°13.68 2°55.78 98.7 2 282 9.9
2003-05-07 06:55:54 51°13.68 2°55.78 96.5 1.6 283 10.2
2003-05-07 06:56:00 51°13.68 2°55.77 94 1.1 285 10.2
2003-05-07 06:56:04 51°13.68 2°55.77 90.7 0.9 288 10.3
2003-05-07 06:56:08 51°13.68 2°55.77 87 0.6 299 10.4
2003-05-07 06:56:12 51°13.68 2°55.77 83 0.4 327 10.4
2003-05-07 06:56:18 51°13.68 2°55.77 78.8 0.3 2 10.5
2003-05-07 06:56:22 51°13.68 2°55.77 74.2 0.5 21 -999
2003-05-07 06:56:28 51°13.68 2°55.77 68.4 0.7 36 11.1
2003-05-07 06:56:32 51°13.68 2°55.77 64.5 0.9 36 11.3
2003-05-07 06:56:38 51°13.68 2°55.78 59.2 1.1 36 11.6
2003-05-07 06:56:42 51°13.69 2°55.78 53.7 1.3 34 11.5
2003-05-07 06:56:48 51°13.69 2°55.78 48.2 1.5 30 11.6
2003-05-07 06:56:52 51°13.69 2°55.78 42.6 1.7 27 11.6
2003-05-07 06:56:56 51°13.69 2°55.78 37 1.9 22 11.6
2003-05-07 06:57:02 51°13.69 2°55.78 31.4 2 18 11.6
2003-05-07 06:57:08 51°13.7 2°55.78 25.9 2.1 13 11.7
2003-05-07 06:57:12 51°13.7 2°55.78 20.3 2.3 9 11.7
2003-05-07 06:57:16 51°13.7 2°55.78 14.9 2.4 4 11.6
2003-05-07 06:57:22 51°13.71 2°55.78 9.4 2.5   11.7
2003-05-07 06:57:28 51°13.71 2°55.78 3.6 2.6 354 11.7
2003-05-07 06:57:32 51°13.71 2°55.78 358 2.7 350 11.6
2003-05-07 06:57:36 51°13.72 2°55.78 352.3 2.8 344 11.2
2003-05-07 06:57:42 51°13.72 2°55.78 346.5 2.9 339 10.9
2003-05-07 06:57:48 51°13.72 2°55.77 340.6 3 333 10.5
2003-05-07 06:57:52 51°13.73 2°55.77 334.8 3 329 10.2
2003-05-07 06:57:56 51°13.73 2°55.77 329.3 3.1 324 9.9
2003-05-07 06:58:02 51°13.73 2°55.76 324.9 3.2 321 9.8
2003-05-07 06:58:08 51°13.74 2°55.76 322.2 3.4 318 9.7
2003-05-07 06:58:12 51°13.74 2°55.75 320.8 3.4 318 9.6
2003-05-07 06:58:16 51°13.74 2°55.75 319.1 3.6 315 9.5
2003-05-07 06:58:22 51°13.75 2°55.74 317.6 3.6 314 9.6
2003-05-07 06:58:28 51°13.75 2°55.74 316.7 3.8 314 9.6
2003-05-07 06:58:32 51°13.76 2°55.73 316.4 3.9 313 9.7
2003-05-07 06:58:36 51°13.76 2°55.73 316.6 4 314 9.6
2003-05-07 06:58:42 51°13.76 2°55.72 317.5 4.1 314 9.8
2003-05-07 06:58:48 51°13.77 2°55.71 318.6 4.5 315 9.6
2003-05-07 06:58:52 51°13.77 2°55.7 319.4 4.8 316 9.8
2003-05-07 06:58:56 51°13.78 2°55.7 320.2 5.2 317 9.9
2003-05-07 06:59:02 51°13.78 2°55.69 321.3 5.5 318 9.9
2003-05-07 06:59:08 51°13.79 2°55.68 322.9 5.8 320 10.1
2003-05-07 06:59:12 51°13.8 2°55.67 325.4 5.9 323 10.1
2003-05-07 06:59:16 51°13.8 2°55.67 328.2 6.1 325 10.1
2003-05-07 06:59:22 51°13.81 2°55.66 331 6.3 329 10.1
2003-05-07 06:59:28 51°13.82 2°55.65 333.2 6.4 330 10.1
2003-05-07 06:59:32 51°13.83 2°55.64 334.9 6.5 331 10.2
2003-05-07 06:59:36 51°13.83 2°55.64 337.3 6.7 334 10.1
2003-05-07 06:59:42 51°13.84 2°55.63 339.9 6.8 336 10
2003-05-07 06:59:48 51°13.85 2°55.62 342.3 6.9 338 10
2003-05-07 06:59:52 51°13.86 2°55.62 343.3 7 339 9.9
2003-05-07 06:59:56 51°13.87 2°55.61 343.3 7.1 339 9.8
2003-05-07 07:00:02 51°13.88 2°55.61 343.2 7.2 338 10
2003-05-07 07:00:08 51°13.89 2°55.6 343.5 7.3 339 10.4
2003-05-07 07:00:12 51°13.9 2°55.6 343.7 7.3 339 10.3
2003-05-07 07:00:16 51°13.91 2°55.59 343.5 7.4 339 10.3
2003-05-07 07:00:22 51°13.92 2°55.58 343.4 7.5 339 10.4
2003-05-07 07:00:28 51°13.93 2°55.58 344.2 7.5 340 10.3
2003-05-07 07:00:32 51°13.94 2°55.57 344.7 7.5 340 10.4
2003-05-07 07:00:38 51°13.95 2°55.56 344.6 7.6 340 10.1
2003-05-07 07:00:42 51°13.96 2°55.56 344.3 7.6 340 10
2003-05-07 07:00:48 51°13.97 2°55.55 344.4 7.6 341 10.2
2003-05-07 07:00:52 51°13.98 2°55.55 344 7.7 340 10.3
2003-05-07 07:00:56 51°13.98 2°55.54 343.7 7.7 341 10.2
2003-05-07 07:01:02 51°14 2°55.54 343.7 7.7 340 10.1
2003-05-07 07:01:08 51°14.01 2°55.53 343.9 7.7 340 10.2
2003-05-07 07:01:12 51°14.02 2°55.52 344 7.7 339 10.2
2003-05-07 07:01:16 51°14.02 2°55.52 342.2 7.7 336 10.2
2003-05-07 07:01:22 51°14.04 2°55.51 340.5 7.7 336 10.2
2003-05-07 07:01:28 51°14.05 2°55.5 339.7 7.8 335 -999
2003-05-07 07:01:32 51°14.06 2°55.5 339.6 7.8 335 10.2
2003-05-07 07:01:38 51°14.07 2°55.49 339 7.8 334 10.2
2003-05-07 07:01:42 51°14.08 2°55.48 337.7 7.8 333 11.2
2003-05-07 07:01:48 51°14.09 2°55.47 336.3 7.9 331 10.3
2003-05-07 07:01:52 51°14.09 2°55.47 335.4 7.9 331 10.3
2003-05-07 07:01:56 51°14.1 2°55.46 334.9 7.9 330 10.8
2003-05-07 07:02:02 51°14.11 2°55.45 334.5 7.9 330 10.7
2003-05-07 07:02:08 51°14.12 2°55.44 334 8 329 10.4
2003-05-07 07:02:12 51°14.13 2°55.43 333.6 8 328 -999
2003-05-07 07:02:18 51°14.14 2°55.42 333.1 8 329 -999
2003-05-07 07:02:24 51°14.16 2°55.41 331.9 8.1 327 11.3
2003-05-07 07:02:28 51°14.16 2°55.4 330.7 8.1 326 10.6
2003-05-07 07:02:32 51°14.17 2°55.39 329.5 8.1 325 10.4
2003-05-07 07:02:38 51°14.18 2°55.38 328.5 8.1 324 11.1
2003-05-07 07:02:42 51°14.19 2°55.37 327.7 8.2 323 -999
2003-05-07 07:02:48 51°14.2 2°55.36 327.3 8.2 323 -999
2003-05-07 07:02:52 51°14.21 2°55.35 327.3 8.2 323 10.3
2003-05-07 07:02:58 51°14.22 2°55.34 327.3 8.2 323 10.4
2003-05-07 07:03:04 51°14.23 2°55.32 326.2 8.2 321 10.3
2003-05-07 07:03:08 51°14.24 2°55.31 324.4 8.2 320 10.3
2003-05-07 07:03:12 51°14.24 2°55.3 322.2 8.2 318 -999
2003-05-07 07:03:16 51°14.25 2°55.29 320.3 8.2 315 10.4
2003-05-07 07:03:22 51°14.26 2°55.28 319.3 8.2 315 10.4
2003-05-07 07:03:28 51°14.27 2°55.26 318.5 8.3 313 10.3
2003-05-07 07:03:32 51°14.27 2°55.25 317.1 8.4 313 10.4
2003-05-07 07:03:38 51°14.28 2°55.24 315.5 8.4 310 10.4
2003-05-07 07:03:42 51°14.29 2°55.22 314.6 8.5 311 10.3
2003-05-07 07:03:48 51°14.3 2°55.21 313.9 8.7 308 10.3
2003-05-07 07:03:52 51°14.3 2°55.19 312.4 8.7 308 10.3
2003-05-07 07:03:56 51°14.31 2°55.18 311.5 8.9 307 10.4
2003-05-07 07:04:02 51°14.32 2°55.16 311.1 9 307 10.4
2003-05-07 07:04:08 51°14.33 2°55.14 311.3 9.2 307 10.4
2003-05-07 07:04:12 51°14.33 2°55.13 312 9.3 308 10.5
2003-05-07 07:04:16 51°14.34 2°55.12 312.8 9.5 309 9.9
2003-05-07 07:04:22 51°14.35 2°55.1 314.1 9.8 309 10.4
2003-05-07 07:04:28 51°14.36 2°55.08 314.7 10 310 10.6
2003-05-07 07:04:32 51°14.37 2°55.06 315.3 10.2 310 10.7
2003-05-07 07:04:36 51°14.38 2°55.05 315.9 10.4 311 10.7
2003-05-07 07:04:42 51°14.39 2°55.03 316.3 10.5 312 10.7
2003-05-07 07:04:48 51°14.4 2°55.01 318 10.6 314 10.6
2003-05-07 07:04:52 51°14.41 2°54.99 320.6 10.8 316 10.6
2003-05-07 07:04:56 51°14.42 2°54.98 324.2 10.8 320 10.6
2003-05-07 07:05:02 51°14.43 2°54.96 328.1 10.8 322 10.4
2003-05-07 07:05:08 51°14.45 2°54.95 331.5 10.8 326 10.3
2003-05-07 07:05:12 51°14.46 2°54.94 333.7 10.9 327 10.2
2003-05-07 07:05:16 51°14.47 2°54.93 336.2 10.9 329 10
2003-05-07 07:05:22 51°14.48 2°54.91 338.3 10.9 331 10
2003-05-07 07:05:28 51°14.5 2°54.9 339.4 10.9 333 10.1
2003-05-07 07:05:32 51°14.51 2°54.89 339.6 10.9 332 9.9
2003-05-07 07:05:36 51°14.52 2°54.88 339.3 10.9 331 9.8
2003-05-07 07:05:42 51°14.54 2°54.87 337.8 11 331 9.9
2003-05-07 07:05:48 51°14.55 2°54.85 337.3 10.9 331 9.9
2003-05-07 07:05:52 51°14.56 2°54.84 337.5 10.9 332 9.9
2003-05-07 07:05:56 51°14.57 2°54.83 340.6 10.9 336 9.9
2003-05-07 07:06:02 51°14.59 2°54.82 344 10.9 339 9.7
2003-05-07 07:06:08 51°14.61 2°54.82 349.2 10.7 346 9.7
2003-05-07 07:06:12 51°14.62 2°54.81 355.5 10.4 349 9.6
2003-05-07 07:06:16 51°14.63 2°54.81 359 9.9 353 9.6
2003-05-07 07:06:22 51°14.65 2°54.81 0.5 9.4 354 9.5
2003-05-07 07:06:28 51°14.66 2°54.81 3 8.7 358 9.6
2003-05-07 07:06:32 51°14.67 2°54.81 4.9 8.2 358 9.6
2003-05-07 07:06:36 51°14.68 2°54.81 7.4 7.7 2 9.6
2003-05-07 07:06:42 51°14.69 2°54.81 10.3 7.3 3 9.6
2003-05-07 07:06:48 51°14.7 2°54.81 12 6.8 6 9.6
2003-05-07 07:06:52 51°14.71 2°54.81 14.3 6.5 7 9.6
2003-05-07 07:06:56 51°14.72 2°54.81 16 6.1 9 9.6
2003-05-07 07:07:02 51°14.73 2°54.81 17.4 5.8 11 9.5
2003-05-07 07:07:08 51°14.74 2°54.82 19.2 5.4 13 9.5
2003-05-07 07:07:12 51°14.74 2°54.82 21.7 4.9 13 9.5
2003-05-07 07:07:16 51°14.75 2°54.82 24.6 4.2 18 9.5
2003-05-07 07:07:22 51°14.75 2°54.82 26.3 3.9 14 9.5
2003-05-07 07:07:28 51°14.76 2°54.83 26 3.3 16 9.5
2003-05-07 07:07:32 51°14.76 2°54.83 22.8 3.3 12 9.5
2003-05-07 07:07:36 51°14.76 2°54.83 20.8 3.2 12 9.4
2003-05-07 07:07:42 51°14.77 2°54.83 18.6 3.1 9 9.4
2003-05-07 07:07:48 51°14.77 2°54.83 17 3.1 8 9.4
2003-05-07 07:07:52 51°14.78 2°54.83 15.2 3 5 9.4
2003-05-07 07:07:56 51°14.78 2°54.83 13.8 3 6 9.4
2003-05-07 07:08:02 51°14.79 2°54.83 12.4 3 2 9.4
2003-05-07 07:08:08 51°14.79 2°54.84 11 2.8 5 9.4
2003-05-07 07:08:12 51°14.79 2°54.84 9.8 2.7 359 9.3
2003-05-07 07:08:16 51°14.8 2°54.84 8 2.4 3 9.4
2003-05-07 07:08:22 51°14.8 2°54.83 7.2 2 355 9.4
2003-05-07 07:08:28 51°14.8 2°54.83 6.7 1.8   9.3
2003-05-07 07:08:32 51°14.8 2°54.83 6.3 1.8 353 9.3
2003-05-07 07:08:36 51°14.81 2°54.83 6.1 1.8 358 9.3
2003-05-07 07:08:42 51°14.81 2°54.83 6 1.8 355 9.3
2003-05-07 07:08:48 51°14.81 2°54.83 5.8 1.9 351 9.3
2003-05-07 07:08:52 51°14.81 2°54.83 5.8 1.8 354 9.3
2003-05-07 07:08:56 51°14.82 2°54.83 5.7 1.8 347 9.3
2003-05-07 07:09:02 51°14.82 2°54.83 5.7 1.8 359 9.3
2003-05-07 07:09:08 51°14.82 2°54.83 5.5 1.7 347 9.3
2003-05-07 07:09:12 51°14.82 2°54.83 5.5 1.6 355 9.4
2003-05-07 07:09:16 51°14.83 2°54.83 5.2 1.7 345 9.4
2003-05-07 07:09:22 51°14.83 2°54.83 5 1.7 356 9.3
2003-05-07 07:09:28 51°14.83 2°54.83 4.6 1.7 345 9.4
2003-05-07 07:09:32 51°14.83 2°54.83 4.2 1.6 357 9.4
2003-05-07 07:09:36 51°14.84 2°54.83 3.7 1.6 343 9.4
2003-05-07 07:09:42 51°14.84 2°54.83 3.2 1.6 355 9.4
2003-05-07 07:09:48 51°14.84 2°54.83 2.7 1.6 342 9.4
2003-05-07 07:09:52 51°14.84 2°54.83 2.1 1.6 353 9.3
2003-05-07 07:09:56 51°14.84 2°54.83 1.4 1.6 341 9.3
2003-05-07 07:10:02 51°14.85 2°54.83 0.9 1.6 351 9.4
2003-05-07 07:10:08 51°14.85 2°54.82 0.2 1.6 340 9.3
2003-05-07 07:10:12 51°14.85 2°54.82 359.6 1.5 356 9.4
2003-05-07 07:10:16 51°14.85 2°54.82 358.8 1.6 340 9.4
2003-05-07 07:10:22 51°14.85 2°54.82 358.2 1.5 352 9.4
2003-05-07 07:10:28 51°14.86 2°54.82 357.4 1.5 344 9.3
2003-05-07 07:10:32 51°14.86 2°54.82 357 1.4 346 9.4
2003-05-07 07:10:36 51°14.86 2°54.82 356 1.5 343 9.3
2003-05-07 07:10:42 51°14.86 2°54.82 355.5 1.4 342 9.4
2003-05-07 07:10:48 51°14.86 2°54.82 354.7 1.5 341 9.3
2003-05-07 07:10:52 51°14.87 2°54.82 354.1 1.4 345 9.4
2003-05-07 07:10:56 51°14.87 2°54.81 353.4 1.4 340 9.3
2003-05-07 07:11:02 51°14.87 2°54.81 352.8 1.4 341 9.4
2003-05-07 07:11:08 51°14.87 2°54.81 352.1 1.4 342 9.4
2003-05-07 07:11:12 51°14.87 2°54.81 351.5 1.4 334 9.3
2003-05-07 07:11:16 51°14.88 2°54.81 351 1.4 338 9.3
2003-05-07 07:11:22 51°14.88 2°54.81 350.3 1.4 336 9.3
2003-05-07 07:11:28 51°14.88 2°54.81 349.8 1.4 335 9.3
2003-05-07 07:11:32 51°14.88 2°54.81 349.1 1.4 339 9.3
2003-05-07 07:11:36 51°14.88 2°54.81 348.7 1.4 333 9.3
2003-05-07 07:11:42 51°14.88 2°54.8 348.1 1.4 337 9.3
2003-05-07 07:11:48 51°14.89 2°54.8 347.6 1.4 330 9.4
2003-05-07 07:11:52 51°14.89 2°54.8 347 1.4 339 9.3
2003-05-07 07:11:56 51°14.89 2°54.8 346.6 1.3 328 9.4
2003-05-07 07:12:02 51°14.89 2°54.8 346.1 1.3 338 9.3
2003-05-07 07:12:08 51°14.89 2°54.8 345.6 1.3 325 9.3
2003-05-07 07:12:12 51°14.89 2°54.8 345 1.2 335 9.4
2003-05-07 07:12:16 51°14.89 2°54.8 344.6 1.3 318 9.4
2003-05-07 07:12:22 51°14.9 2°54.79 344 1.2 340 9.3
2003-05-07 07:12:28 51°14.9 2°54.79 343.5 1.3 321 9.3
2003-05-07 07:12:32 51°14.9 2°54.79 343.1 1.2 340 9.3
2003-05-07 07:12:36 51°14.9 2°54.79 342.5 1.3 323 9.3
2003-05-07 07:12:42 51°14.9 2°54.79 342.2 1.3 335 9.3
2003-05-07 07:12:48 51°14.9 2°54.79 341.8 1.3 323 9.3
2003-05-07 07:12:52 51°14.9 2°54.79 341.4 1.2 332 9.3
2003-05-07 07:12:56 51°14.91 2°54.78 341 1.3 328 9.3
2003-05-07 07:13:02 51°14.91 2°54.78 340.6 1.1 335 9.3
2003-05-07 07:13:08 51°14.91 2°54.78 340.4 1.3 321 9.3
2003-05-07 07:13:12 51°14.91 2°54.78 340 1.3 334 9.3
2003-05-07 07:13:16 51°14.91 2°54.78 339.7 1.6 322 9.3
2003-05-07 07:13:22 51°14.91 2°54.78 339.3 1.7 332 9.3
2003-05-07 07:13:28 51°14.92 2°54.77 338.9 2.1 326 9.2
2003-05-07 07:13:32 51°14.92 2°54.77 338 2.5 330 9.2
2003-05-07 07:13:36 51°14.92 2°54.77 336.7 3 327 9.2
2003-05-07 07:13:42 51°14.93 2°54.76 335.3 3.4 328 9.2
2003-05-07 07:13:48 51°14.93 2°54.76 333.7 4.2 326 9.2
2003-05-07 07:13:52 51°14.94 2°54.75 332.6 4.6 327 9.2
2003-05-07 07:13:56 51°14.94 2°54.75 331.7 5.2 325 9.2
2003-05-07 07:14:02 51°14.95 2°54.74 331.2 5.6 324 9.2
2003-05-07 07:14:08 51°14.96 2°54.73 330.6 6 324 9.2
2003-05-07 07:14:12 51°14.96 2°54.72 330.2 6.4 324 9.2
2003-05-07 07:14:16 51°14.97 2°54.72 329.5 6.8 323 9.3
2003-05-07 07:14:22 51°14.98 2°54.7 329 7.1 323 9.2
2003-05-07 07:14:28 51°14.99 2°54.69 328.5 8 322 9
2003-05-07 07:14:32 51°15 2°54.68 327.9 8.5 323 8.9
2003-05-07 07:14:36 51°15 2°54.67 327.5 9.1 322 8.8
2003-05-07 07:14:42 51°15.02 2°54.66 327 9.5 321 8.7
2003-05-07 07:14:48 51°15.03 2°54.64 326.1 9.9 320 8.7
2003-05-07 07:14:52 51°15.04 2°54.63 325.2 10.1 320 8.6
2003-05-07 07:14:56 51°15.05 2°54.62 324.4 10.5 319 8.6
2003-05-07 07:15:02 51°15.06 2°54.6 324.3 10.6 319 8.5
2003-05-07 07:15:08 51°15.07 2°54.58 324.1 11 319 8.5
2003-05-07 07:15:12 51°15.08 2°54.57 324.2 11.2 319 8.5
2003-05-07 07:15:16 51°15.09 2°54.55 324.5 11.8 319 8.5
2003-05-07 07:15:22 51°15.11 2°54.53 325.1 12 320 8.5
2003-05-07 07:15:28 51°15.12 2°54.51 325.7 12.2 321 8.5
2003-05-07 07:15:32 51°15.13 2°54.5 326.4 12.3 321 8.5
2003-05-07 07:15:36 51°15.14 2°54.49 327.4 12.5 323 8.5
2003-05-07 07:15:42 51°15.16 2°54.47 328.8 12.6 324 8.6
2003-05-07 07:15:48 51°15.18 2°54.45 330.3 12.7 326 8.7
2003-05-07 07:15:52 51°15.19 2°54.43 332 12.7 327 8.8
2003-05-07 07:15:56 51°15.2 2°54.42 333.1 12.6 327 8.8
2003-05-07 07:16:02 51°15.22 2°54.4 334 12.7 328 8.9
2003-05-07 07:16:08 51°15.24 2°54.39 334.9 12.7 329 8.9
2003-05-07 07:16:12 51°15.25 2°54.38 334.7 12.7 328 9
2003-05-07 07:16:16 51°15.26 2°54.36 332.8 12.8 325 9
2003-05-07 07:16:22 51°15.28 2°54.34 329.6 12.8 323 9.1
2003-05-07 07:16:28 51°15.3 2°54.32 325.8 12.8 318 9.1
2003-05-07 07:16:32 51°15.31 2°54.31 322.4 12.8 317 9.2
2003-05-07 07:16:36 51°15.32 2°54.29 320.5 12.7 315 9.2
2003-05-07 07:16:42 51°15.33 2°54.27 320.4 12.8 316 9.3
2003-05-07 07:16:48 51°15.35 2°54.24 322.2 12.8 318 9.4
2003-05-07 07:16:52 51°15.36 2°54.23 325.2 12.9 321 9.5
2003-05-07 07:16:56 51°15.37 2°54.21 328.4 12.8 324 9.5
2003-05-07 07:17:02 51°15.39 2°54.19 331 12.8 326 9.6
2003-05-07 07:17:08 51°15.4 2°54.18 333.1 12.7 327 9.6
2003-05-07 07:17:12 51°15.42 2°54.16 334.5 12.7 328 9.7
2003-05-07 07:17:16 51°15.43 2°54.15 335.3 12.7 329 9.8
2003-05-07 07:17:22 51°15.45 2°54.13 335.9 12.8 329 9.9
2003-05-07 07:17:28 51°15.46 2°54.12 336.2 12.9 329 9.9
2003-05-07 07:17:32 51°15.48 2°54.1 336.3 12.8 329 10
2003-05-07 07:17:36 51°15.49 2°54.09 336.1 12.8 329 10
2003-05-07 07:17:42 51°15.51 2°54.08 336 12.8 329 10.1
2003-05-07 07:17:48 51°15.53 2°54.06 335.8 12.8 328 10.1
2003-05-07 07:17:52 51°15.54 2°54.05 335.8 12.7 329 10.1
2003-05-07 07:17:56 51°15.55 2°54.03 335.6 12.8 329 10.2
2003-05-07 07:18:02 51°15.57 2°54.02 335.5 12.7 329 10.3
2003-05-07 07:18:08 51°15.59 2°54 335.3 12.8 328 10.4
2003-05-07 07:18:12 51°15.6 2°53.99 335.4 12.7 329 10.5
2003-05-07 07:18:16 51°15.61 2°53.98 335.4 12.7 329 10.5
2003-05-07 07:18:22 51°15.63 2°53.96 335.6 12.7 329 10.6
2003-05-07 07:18:28 51°15.65 2°53.94 335.6 12.7 329 10.7
2003-05-07 07:18:32 51°15.66 2°53.93 335.7 12.8 329 10.7
2003-05-07 07:18:36 51°15.67 2°53.92 335.7 12.8 329 10.8
2003-05-07 07:18:42 51°15.69 2°53.9 335.6 12.8 329 10.8
2003-05-07 07:18:48 51°15.71 2°53.88 336 12.8 330 10.8
2003-05-07 07:18:52 51°15.72 2°53.87 336.1 12.9 330 10.9
2003-05-07 07:18:56 51°15.73 2°53.86 336.1 12.8 330 11
2003-05-07 07:19:02 51°15.75 2°53.84 336.1 12.8 330 11
2003-05-07 07:19:08 51°15.77 2°53.82 336 12.8 330 11.1
2003-05-07 07:19:12 51°15.78 2°53.81 335.8 12.8 329 11.2
2003-05-07 07:19:16 51°15.79 2°53.8 335.6 12.9 329 11.2
2003-05-07 07:19:22 51°15.81 2°53.79 335.5 12.9 329 11.2
2003-05-07 07:19:28 51°15.83 2°53.77 335.4 12.9 330 11.3
2003-05-07 07:19:32 51°15.84 2°53.76 335.4 12.9 330 11.4
2003-05-07 07:19:36 51°15.86 2°53.74 335.4 12.8 330 11.4
2003-05-07 07:19:42 51°15.87 2°53.73 335.5 12.9 330 11.4
2003-05-07 07:19:48 51°15.89 2°53.71 335.6 12.9 330 11.4
2003-05-07 07:19:52 51°15.9 2°53.7 335.6 12.9 330 11.5
2003-05-07 07:19:56 51°15.92 2°53.69 335.1 12.8 329 11.5
2003-05-07 07:20:02 51°15.94 2°53.67 334.8 12.8 329 11.6
2003-05-07 07:20:08 51°15.95 2°53.65 335 12.8 329 11.6
2003-05-07 07:20:12 51°15.97 2°53.64 335.6 12.8 330 11.7
2003-05-07 07:20:16 51°15.98 2°53.63 336.7 12.9 331 11.7
2003-05-07 07:20:22 51°16 2°53.61 337.6 12.8 332 11.7
2003-05-07 07:20:28 51°16.02 2°53.6 338.1 12.8 331 11.7
2003-05-07 07:20:32 51°16.03 2°53.59 338.3 12.8 333 11.7
2003-05-07 07:20:36 51°16.04 2°53.58 338.7 13 333 11.7
2003-05-07 07:20:42 51°16.06 2°53.56 339.1 13 333 11.8
2003-05-07 07:20:48 51°16.08 2°53.54 339.2 13.2 333 11.8
2003-05-07 07:20:52 51°16.09 2°53.53 338.9 13.4 334 11.8
2003-05-07 07:20:56 51°16.11 2°53.52 338.9 13.4 333 11.8
2003-05-07 07:21:02 51°16.13 2°53.51 338.4 13.6 332 11.7
2003-05-07 07:21:08 51°16.15 2°53.49 338.2 13.6 332 11.7
2003-05-07 07:21:12 51°16.16 2°53.48 338.2 13.7 333 11.8
2003-05-07 07:21:16 51°16.17 2°53.47 338.6 13.7 332 11.8
2003-05-07 07:21:22 51°16.19 2°53.45 338.7 13.8 333 11.8
2003-05-07 07:21:28 51°16.21 2°53.43 338.7 13.8 333 11.9
2003-05-07 07:21:32 51°16.23 2°53.42 338.9 13.9 333 12
2003-05-07 07:21:36 51°16.24 2°53.41 338.9 13.9 333 12
2003-05-07 07:21:42 51°16.26 2°53.39 339 13.9 333 12.1
2003-05-07 07:21:48 51°16.28 2°53.38 338.9 14 333 12
2003-05-07 07:21:52 51°16.3 2°53.37 338.7 14 333 12
2003-05-07 07:21:56 51°16.31 2°53.35 338.2 14 332 12.1
2003-05-07 07:22:02 51°16.33 2°53.34 337.6 13.9 332 12.1
2003-05-07 07:22:08 51°16.35 2°53.32 337.6 13.9 332 12.1
2003-05-07 07:22:12 51°16.37 2°53.31 337.6 14 332 12.1
2003-05-07 07:22:16 51°16.38 2°53.3 337.9 14 332 12.1
2003-05-07 07:22:22 51°16.4 2°53.28 338.3 14 332 12.1
2003-05-07 07:22:28 51°16.42 2°53.26 338.4 14 332 12.1
2003-05-07 07:22:32 51°16.43 2°53.25 338.4 14 332 12.1
2003-05-07 07:22:36 51°16.45 2°53.24 338.1 13.9 332 12
2003-05-07 07:22:42 51°16.47 2°53.22 338 14.1 331 12.1
2003-05-07 07:22:48 51°16.49 2°53.2 338.1 14.1 332 12
2003-05-07 07:22:52 51°16.5 2°53.19 338.3 14 332 12
2003-05-07 07:22:56 51°16.52 2°53.18 338.7 14.1 333 11.8
2003-05-07 07:23:02 51°16.54 2°53.16 338.9 14 333 11.8
2003-05-07 07:23:08 51°16.56 2°53.15 339 14 333 11.8
2003-05-07 07:23:12 51°16.57 2°53.13 338.9 14 333 11.7
2003-05-07 07:23:16 51°16.59 2°53.12 338.6 14 332 11.6
2003-05-07 07:23:22 51°16.61 2°53.11 338.2 14 332 11.5
2003-05-07 07:23:28 51°16.63 2°53.09 338.2 14 332 11.5
2003-05-07 07:23:32 51°16.64 2°53.08 338.1 14.1 333 11.5
2003-05-07 07:23:36 51°16.65 2°53.07 338.1 14 333 11.4
2003-05-07 07:23:42 51°16.68 2°53.05 338.3 14.1 333 11.2
2003-05-07 07:23:48 51°16.7 2°53.03 338.3 14 333 11.2
2003-05-07 07:23:52 51°16.71 2°53.02 338.3 14 333 11.1
2003-05-07 07:23:56 51°16.72 2°53.01 338.1 14.1 332 11
2003-05-07 07:24:02 51°16.74 2°52.99 338 14 332 10.9
2003-05-07 07:24:08 51°16.76 2°52.97 338.2 14 332 10.6
2003-05-07 07:24:12 51°16.78 2°52.96 338.3 14 333 10.3
2003-05-07 07:24:16 51°16.79 2°52.95 338.5 13.9 333 9.9
2003-05-07 07:24:22 51°16.81 2°52.94 338.6 13.8 334 9
2003-05-07 07:24:28 51°16.83 2°52.92 338.3 13.6 332 8.8
2003-05-07 07:24:32 51°16.85 2°52.91 338 13.6 333 8.7
2003-05-07 07:24:36 51°16.86 2°52.9 337.6 13.5 332 8.6
2003-05-07 07:24:42 51°16.88 2°52.88 337.5 13.5 332 8.9
2003-05-07 07:24:48 51°16.9 2°52.86 337.5 13.6 332 9
2003-05-07 07:24:52 51°16.91 2°52.85 337.1 13.7 331 9.2
2003-05-07 07:24:58 51°16.93 2°52.83 337 13.9 331 9.2
2003-05-07 07:25:02 51°16.95 2°52.82 337 13.9 331 9.4
2003-05-07 07:25:08 51°16.97 2°52.8 337 14 332 9.5
2003-05-07 07:25:12 51°16.98 2°52.79 337.3 14 332 9.4
2003-05-07 07:25:16 51°16.99 2°52.78 338 14 333 9.6
2003-05-07 07:25:22 51°17.02 2°52.76 338.6 14 334 9.7
2003-05-07 07:25:28 51°17.04 2°52.75 339.6 14.1 334 9.9
2003-05-07 07:25:32 51°17.05 2°52.74 341.1 14.1 337 10
2003-05-07 07:25:36 51°17.07 2°52.73 342.9 14.2 338 10.1
2003-05-07 07:25:42 51°17.09 2°52.71 344.1 14.2 339 10
2003-05-07 07:25:48 51°17.11 2°52.7 344.6 14.2 340 9.9
2003-05-07 07:25:52 51°17.13 2°52.69 344.9 14.1 340 9.6
2003-05-07 07:25:56 51°17.14 2°52.68 345 13.9 339 9.5
2003-05-07 07:26:02 51°17.16 2°52.67 345 13.9 340 9.6
2003-05-07 07:26:08 51°17.18 2°52.66 344.5 14 339 9.6
2003-05-07 07:26:12 51°17.2 2°52.65 343.9 14 339 9.4
2003-05-07 07:26:16 51°17.21 2°52.64 343.1 14 338 9.4
2003-05-07 07:26:22 51°17.23 2°52.63 342.8 14 337 9.5
2003-05-07 07:26:28 51°17.26 2°52.61 342.8 14 338 9.7
2003-05-07 07:26:32 51°17.27 2°52.6 344.4 14 339 9.7
2003-05-07 07:26:36 51°17.28 2°52.59 346.7 14.1 342 9.7
2003-05-07 07:26:42 51°17.31 2°52.58 348.3 14.1 343 9.9
2003-05-07 07:26:48 51°17.33 2°52.57 350.1 14.1 344 9.6
2003-05-07 07:26:52 51°17.35 2°52.57 351.2 14 345 9.9
2003-05-07 07:26:56 51°17.36 2°52.56 351.7 14.1 345 9.9
2003-05-07 07:27:02 51°17.38 2°52.55 352.1 14 346 10
2003-05-07 07:27:08 51°17.41 2°52.54 352.1 14 345 9.9
2003-05-07 07:27:12 51°17.42 2°52.54 351.4 14.1 345 10.1
2003-05-07 07:27:16 51°17.44 2°52.53 351.1 14.1 345 10
2003-05-07 07:27:22 51°17.46 2°52.52 350.5 14.1 344 10
2003-05-07 07:27:28 51°17.48 2°52.51 350 14 344 10
2003-05-07 07:27:32 51°17.5 2°52.5 349.9 14.1 344 10.2
2003-05-07 07:27:36 51°17.51 2°52.49 349.8 14.1 344 10.3
2003-05-07 07:27:42 51°17.53 2°52.48 350 14 344 10.3
2003-05-07 07:27:48 51°17.56 2°52.47 351 14 346 10.2
2003-05-07 07:27:52 51°17.57 2°52.47 352.7 14 347 10.2
2003-05-07 07:27:58 51°17.59 2°52.46 354.1 14 348 10.3
2003-05-07 07:28:02 51°17.61 2°52.46 355.5 14 350 10.3
2003-05-07 07:28:08 51°17.63 2°52.45 356.3 13.9 350 10.3
2003-05-07 07:28:12 51°17.65 2°52.45 356.6 14 351 10.2
2003-05-07 07:28:16 51°17.66 2°52.44 357.1 14 351 10
2003-05-07 07:28:22 51°17.69 2°52.44 358.6 13.9 353 10.2
2003-05-07 07:28:28 51°17.71 2°52.43 359.9 13.9 355 9.9
2003-05-07 07:28:32 51°17.72 2°52.43 1 14 355 10.1
2003-05-07 07:28:36 51°17.74 2°52.43 1.8 14 356 10.3
2003-05-07 07:28:42 51°17.76 2°52.43 2.9 13.9 357 10.3
2003-05-07 07:28:48 51°17.79 2°52.43 4.7 13.9 359 10.2
2003-05-07 07:28:52 51°17.8 2°52.43 5.6 13.9 359 10.4
2003-05-07 07:28:56 51°17.82 2°52.43 6.5 14 1 10.2
2003-05-07 07:29:02 51°17.84 2°52.43 7.2 14 1 10.3
2003-05-07 07:29:08 51°17.86 2°52.43 8.6 13.9 4 10.2
2003-05-07 07:29:12 51°17.88 2°52.43 10 13.9 4 10.3
2003-05-07 07:29:16 51°17.89 2°52.43 10.8 14 6 10.4
2003-05-07 07:29:22 51°17.92 2°52.44 11.5 14 5 10.5
2003-05-07 07:29:28 51°17.94 2°52.44 12.2 14 7 10.4
2003-05-07 07:29:32 51°17.96 2°52.44 13 13.8 6 10.5
2003-05-07 07:29:36 51°17.97 2°52.45 15.6 13.9 12 10.4
2003-05-07 07:29:42 51°17.99 2°52.45 17.8 14 11 10.5
2003-05-07 07:29:48 51°18.02 2°52.46 20.3 13.8 15 10.4
2003-05-07 07:29:52 51°18.03 2°52.47 21.7 13.8 16 10.5
2003-05-07 07:29:56 51°18.04 2°52.48 24.1 13.7 20 10.6
2003-05-07 07:30:02 51°18.07 2°52.49 28.3 13.7 23 10.5
2003-05-07 07:30:08 51°18.09 2°52.51 32.3 13.7 28 10.5
2003-05-07 07:30:12 51°18.1 2°52.52 36.1 13.7 33 10.6
2003-05-07 07:30:16 51°18.11 2°52.53 39.9 13.6 36 10.6
2003-05-07 07:30:22 51°18.13 2°52.56 44.2 13.5 40 10.7
2003-05-07 07:30:28 51°18.15 2°52.58 47.8 13.6 44 10.7
2003-05-07 07:30:32 51°18.16 2°52.6 49.8 13.5 44 10.7
2003-05-07 07:30:36 51°18.17 2°52.62 51.7 13.6 47 10.7
2003-05-07 07:30:42 51°18.18 2°52.64 52.9 13.6 47 10.7
2003-05-07 07:30:48 51°18.2 2°52.67 53.8 13.5 49 10.8
2003-05-07 07:30:52 51°18.21 2°52.69 54.4 13.6 49 10.8
2003-05-07 07:30:56 51°18.22 2°52.71 54.8 13.5 49 10.8
2003-05-07 07:31:02 51°18.23 2°52.73 54.9 13.6 50 10.8
2003-05-07 07:31:08 51°18.25 2°52.76 54.7 13.5 49 10.9
2003-05-07 07:31:12 51°18.26 2°52.78 54.5 13.5 49 10.8
2003-05-07 07:31:16 51°18.27 2°52.8 53.8 13.7 48 10.8
2003-05-07 07:31:22 51°18.28 2°52.82 53.7 13.7 49 10.8
2003-05-07 07:31:28 51°18.3 2°52.85 53.7 13.6 48 10.9
2003-05-07 07:31:32 51°18.31 2°52.87 53.9 13.6 49 10.9
2003-05-07 07:31:36 51°18.32 2°52.89 53.9 13.6 48 10.9
2003-05-07 07:31:42 51°18.33 2°52.91 54.5 13.6 51 10.9
2003-05-07 07:31:48 51°18.34 2°52.94 56.2 13.6 52 10.9
2003-05-07 07:31:52 51°18.35 2°52.96 58 13.6 53 10.9
2003-05-07 07:31:56 51°18.36 2°52.98 61.2 13.6 59 10.9
2003-05-07 07:32:02 51°18.37 2°53.01 64.4 13.6 59 10.9
2003-05-07 07:32:08 51°18.38 2°53.04 66.5 13.5 63 10.9
2003-05-07 07:32:12 51°18.39 2°53.07 68.6 13.5 64 10.9
2003-05-07 07:32:16 51°18.4 2°53.09 70 13.5 66 11
2003-05-07 07:32:22 51°18.41 2°53.12 71.1 13.5 67 10.9
2003-05-07 07:32:28 51°18.41 2°53.15 71.8 13.5 67 11
2003-05-07 07:32:32 51°18.42 2°53.17 71.8 13.4 67 11
2003-05-07 07:32:36 51°18.43 2°53.2 71.5 13.5 67 11
2003-05-07 07:32:42 51°18.44 2°53.23 70.6 13.5 65 11
2003-05-07 07:32:48 51°18.45 2°53.26 70.4 13.5 66 11
2003-05-07 07:32:52 51°18.45 2°53.28 70.7 13.4 65 11
2003-05-07 07:32:56 51°18.46 2°53.31 71.4 13.4 68 11
2003-05-07 07:33:02 51°18.47 2°53.34 72.4 13.5 67 11
2003-05-07 07:33:08 51°18.47 2°53.37 73.1 13.5 68 11
2003-05-07 07:33:12 51°18.48 2°53.39 72.5 13.5 66 11
2003-05-07 07:33:16 51°18.49 2°53.42 73 13.4 67 11
2003-05-07 07:33:22 51°18.49 2°53.45 72.8 13.5 68 11
2003-05-07 07:33:28 51°18.5 2°53.48 72.8 13.5 67 11
2003-05-07 07:33:32 51°18.51 2°53.5 72.1 13.5 67 11
2003-05-07 07:33:38 51°18.52 2°53.54 72.5 13.4 69 11
2003-05-07 07:33:42 51°18.52 2°53.56 72.8 13.4 67 11
2003-05-07 07:33:48 51°18.53 2°53.59 72.9 13.4 67 11
2003-05-07 07:33:52 51°18.54 2°53.61 72.5 13.5 67 11
2003-05-07 07:33:56 51°18.54 2°53.64 72.4 13.4 67 10.9
2003-05-07 07:34:02 51°18.55 2°53.67 72.2 13.4 67 10.9
2003-05-07 07:34:08 51°18.56 2°53.7 72.5 13.3 68 10.9
2003-05-07 07:34:12 51°18.56 2°53.72 72.8 13.4 68 10.9
2003-05-07 07:34:16 51°18.57 2°53.75 72.4 13.4 68 10.9
2003-05-07 07:34:22 51°18.58 2°53.78 72.5 13.5 67 10.9
2003-05-07 07:34:28 51°18.59 2°53.81 72.4 13.5 68 10.8
2003-05-07 07:34:32 51°18.59 2°53.83 72.5 13.4 67 10.8
2003-05-07 07:34:36 51°18.6 2°53.86 72.5 13.4 68 10.8
2003-05-07 07:34:42 51°18.61 2°53.89 72.5 13.4 67 10.8
2003-05-07 07:34:48 51°18.62 2°53.92 72.2 13.4 67 10.9
2003-05-07 07:34:52 51°18.62 2°53.94 73.1 13.4 68 10.8
2003-05-07 07:34:56 51°18.63 2°53.97 73.4 13.4 68 10.8
2003-05-07 07:35:02 51°18.64 2°54 73 13.4 68 10.8
2003-05-07 07:35:08 51°18.64 2°54.03 72.6 13.4 67 10.8
2003-05-07 07:35:12 51°18.65 2°54.05 72.5 13.4 68 10.8
2003-05-07 07:35:16 51°18.65 2°54.07 72.6 13.3 67 10.8
2003-05-07 07:35:22 51°18.66 2°54.11 72.5 13.3 68 10.8
2003-05-07 07:35:28 51°18.67 2°54.14 72.5 13.3 67 10.8
2003-05-07 07:35:32 51°18.68 2°54.16 72.5 13.2 68 10.8
2003-05-07 07:35:36 51°18.68 2°54.18 72.7 13.3 68 10.8
2003-05-07 07:35:42 51°18.69 2°54.22 72.5 13.3 68 10.8
2003-05-07 07:35:48 51°18.7 2°54.25 72.6 13.3 68 10.7
2003-05-07 07:35:52 51°18.71 2°54.27 72.7 13.3 67 10.8
2003-05-07 07:35:56 51°18.71 2°54.29 72.8 13.4 69 10.8
2003-05-07 07:36:02 51°18.72 2°54.33 73 13.4 68 10.8
2003-05-07 07:36:08 51°18.73 2°54.36 72.7 13.2 68 10.8
2003-05-07 07:36:12 51°18.73 2°54.38 72.5 13.2 67 10.8
2003-05-07 07:36:16 51°18.74 2°54.4 71.8 13.3 66 10.8
2003-05-07 07:36:22 51°18.75 2°54.43 71.3 13.4 67 10.8
2003-05-07 07:36:28 51°18.76 2°54.47 71.6 13.4 67 10.8
2003-05-07 07:36:32 51°18.76 2°54.49 71.9 13.4 67 10.8
2003-05-07 07:36:38 51°18.77 2°54.52 72.2 13.5 67 10.7
2003-05-07 07:36:42 51°18.78 2°54.54 72.2 13.4 67 10.8
2003-05-07 07:36:48 51°18.78 2°54.58 72.7 13.3 68 10.8
2003-05-07 07:36:52 51°18.79 2°54.6 72.8 13.3 67 10.7
2003-05-07 07:36:56 51°18.8 2°54.62 72.9 13.4 67 10.7
2003-05-07 07:37:02 51°18.8 2°54.65 72.2 13.4 67 10.7
2003-05-07 07:37:08 51°18.81 2°54.69 72.1 13.4 68 10.8
2003-05-07 07:37:12 51°18.82 2°54.71 72 13.3 66 10.7
2003-05-07 07:37:16 51°18.82 2°54.73 72.5 13.3 68 10.8
2003-05-07 07:37:22 51°18.83 2°54.76 72.8 13.4 68 10.7
2003-05-07 07:37:28 51°18.84 2°54.79 72.8 13.3 67 10.7
2003-05-07 07:37:32 51°18.85 2°54.82 72.5 13.3 67 10.7
2003-05-07 07:37:36 51°18.85 2°54.84 72.5 13.4 68 10.7
2003-05-07 07:37:42 51°18.86 2°54.87 72.3 13.4 66 10.7
2003-05-07 07:37:48 51°18.87 2°54.9 72.2 13.3 67 10.7
2003-05-07 07:37:52 51°18.88 2°54.93 72.1 13.4 67 10.7
2003-05-07 07:37:56 51°18.88 2°54.95 71.9 13.4 67 10.6
2003-05-07 07:38:02 51°18.89 2°54.98 72.1 13.4 67 10.7
2003-05-07 07:38:08 51°18.9 2°55.01 72.7 13.3 67 10.7
2003-05-07 07:38:12 51°18.9 2°55.04 72.9 13.4 69 10.7
2003-05-07 07:38:16 51°18.91 2°55.06 72.6 13.3 68 10.7
2003-05-07 07:38:22 51°18.92 2°55.09 72.6 13.3 67 10.7
2003-05-07 07:38:28 51°18.93 2°55.12 72.5 13.3 67 10.7
2003-05-07 07:38:32 51°18.93 2°55.14 72.2 13.4 68 10.6
2003-05-07 07:38:36 51°18.94 2°55.17 72 13.4 67 10.7
2003-05-07 07:38:42 51°18.95 2°55.2 71.9 13.3 68 10.7
2003-05-07 07:38:48 51°18.96 2°55.23 72.2 13.3 67 10.7
2003-05-07 07:38:52 51°18.96 2°55.25 72.2 13.3 68 10.7
2003-05-07 07:38:56 51°18.97 2°55.28 71.8 13.3 68 10.7
2003-05-07 07:39:02 51°18.97 2°55.31 71.8 13.3 67 10.7
2003-05-07 07:39:08 51°18.98 2°55.34 72.4 13.3 69 10.7
2003-05-07 07:39:12 51°18.99 2°55.36 72.4 13.3 67 10.7
2003-05-07 07:39:16 51°18.99 2°55.38 72.5 13.3 69 10.7
2003-05-07 07:39:22 51°19 2°55.42 72.5 13.3 66 10.7
2003-05-07 07:39:28 51°19.01 2°55.45 72.2 13.3 68 10.7
2003-05-07 07:39:32 51°19.02 2°55.47 71.9 13.3 66 10.8
2003-05-07 07:39:36 51°19.02 2°55.49 71.4 13.3 66 10.7
2003-05-07 07:39:42 51°19.03 2°55.53 71.4 13.3 67 10.7
2003-05-07 07:39:48 51°19.04 2°55.56 71.8 13.3 67 10.7
2003-05-07 07:39:52 51°19.05 2°55.58 72.6 13.3 69 10.7
2003-05-07 07:39:56 51°19.05 2°55.6 72.6 13.3 67 10.7
2003-05-07 07:40:02 51°19.06 2°55.64 72.3 13.4 69 10.8
2003-05-07 07:40:08 51°19.07 2°55.67 71.8 13.3 66 10.8
2003-05-07 07:40:12 51°19.07 2°55.69 71.8 13.3 68 10.6
2003-05-07 07:40:16 51°19.08 2°55.71 72.2 13.3 68 10.6
2003-05-07 07:40:22 51°19.09 2°55.74 72.4 13.3 68 10.6
2003-05-07 07:40:28 51°19.1 2°55.78 72.5 13.3 68 10.6
2003-05-07 07:40:32 51°19.1 2°55.8 72.5 13.3 67 10.6
2003-05-07 07:40:36 51°19.11 2°55.82 72.2 13.3 68 10.6
2003-05-07 07:40:42 51°19.11 2°55.85 71.7 13.3 67 10.7
2003-05-07 07:40:48 51°19.12 2°55.89 71.5 13.2 68 10.7
2003-05-07 07:40:52 51°19.13 2°55.91 72.3 13.2 68 10.7
2003-05-07 07:40:56 51°19.13 2°55.93 72.8 13.3 69 10.7
2003-05-07 07:41:02 51°19.14 2°55.96 73.5 13.2 69 10.6
2003-05-07 07:41:08 51°19.15 2°55.99 73.3 13.2 68 10.6
2003-05-07 07:41:12 51°19.16 2°56.02 73.2 13.2 70 10.6
2003-05-07 07:41:16 51°19.16 2°56.04 73.1 13.2 68 10.5
2003-05-07 07:41:22 51°19.17 2°56.07 73.1 13.3 70 10.6
2003-05-07 07:41:28 51°19.18 2°56.1 73.1 13.3 68 10.5
2003-05-07 07:41:32 51°19.18 2°56.13 72.3 13.3 68 10.5
2003-05-07 07:41:38 51°19.19 2°56.16 72.2 13.2 68 10.6
2003-05-07 07:41:42 51°19.2 2°56.18 72.5 13.2 68 10.5
2003-05-07 07:41:48 51°19.2 2°56.21 72.8 13.3 68 10.5
2003-05-07 07:41:52 51°19.21 2°56.23 72.3 13.2 68 10.6
2003-05-07 07:41:56 51°19.22 2°56.26 71.8 13.2 68 10.5
2003-05-07 07:42:02 51°19.22 2°56.29 71.9 13.1 67 10.5
2003-05-07 07:42:08 51°19.23 2°56.32 71.8 13.1 68 10.5
2003-05-07 07:42:12 51°19.24 2°56.34 72 13.2 67 10.4
2003-05-07 07:42:16 51°19.24 2°56.36 72.3 13.2 68 10.5
2003-05-07 07:42:22 51°19.25 2°56.4 72.2 13.2 68 10.5
2003-05-07 07:42:28 51°19.26 2°56.43 71.8 13.1 67 10.5
2003-05-07 07:42:32 51°19.27 2°56.45 72.4 13.2 69 10.5
2003-05-07 07:42:36 51°19.27 2°56.47 72.8 13.2 67 10.4
2003-05-07 07:42:42 51°19.28 2°56.5 72.6 13.2 69 10.4
2003-05-07 07:42:48 51°19.29 2°56.54 72.7 13.2 67 10.4
2003-05-07 07:42:52 51°19.29 2°56.56 72.1 13.2 67 10.4
2003-05-07 07:42:56 51°19.3 2°56.58 71.8 13.2 67 10.4
2003-05-07 07:43:02 51°19.31 2°56.61 71.8 13.2 67 10.3
2003-05-07 07:43:08 51°19.32 2°56.65 72.5 13.3 68 10.4
2003-05-07 07:43:12 51°19.32 2°56.67 72.9 13.3 69 10.3
2003-05-07 07:43:16 51°19.33 2°56.69 72.7 13.3 67 10.3
2003-05-07 07:43:22 51°19.33 2°56.72 72.5 13.2 69 10.4
2003-05-07 07:43:28 51°19.34 2°56.75 72.4 13.2 67 10.4
2003-05-07 07:43:32 51°19.35 2°56.78 71.8 13.3 67 10.4
2003-05-07 07:43:36 51°19.36 2°56.8 70.7 13.3 65 10.3
2003-05-07 07:43:42 51°19.36 2°56.83 70.6 13.3 65 10.3
2003-05-07 07:43:48 51°19.37 2°56.86 70.4 13.3 65 10.2
2003-05-07 07:43:52 51°19.38 2°56.88 70.8 13.3 65 10.3
2003-05-07 07:43:56 51°19.39 2°56.9 71.5 13.4 68 10.2
2003-05-07 07:44:02 51°19.4 2°56.94 72.1 13.3 65 10.2
2003-05-07 07:44:08 51°19.4 2°56.97 72.9 13.3 68 10.2
2003-05-07 07:44:12 51°19.41 2°56.99 73.3 13.3 67 10.2
2003-05-07 07:44:16 51°19.41 2°57.01 73.6 13.2 69 10.2
2003-05-07 07:44:22 51°19.42 2°57.05 73.9 13.3 67 10.2
2003-05-07 07:44:28 51°19.43 2°57.08 74 13.3 67 10.1
2003-05-07 07:44:32 51°19.44 2°57.1 73.3 13.3 67 10.1
2003-05-07 07:44:36 51°19.44 2°57.12 72.8 13.2 65 10.1
2003-05-07 07:44:42 51°19.45 2°57.15 72.1 13.2 67 10.1
2003-05-07 07:44:48 51°19.46 2°57.19 71.8 13.3 64 10
2003-05-07 07:44:52 51°19.47 2°57.21 71.8 13.3 68 10.1
2003-05-07 07:44:56 51°19.47 2°57.23 72.1 13.3 67 10.1
2003-05-07 07:45:02 51°19.48 2°57.26 72.6 13.2 67 10
2003-05-07 07:45:08 51°19.49 2°57.29 72.8 13.2 68 10
2003-05-07 07:45:12 51°19.49 2°57.32 72.9 13.2 67 10
2003-05-07 07:45:16 51°19.5 2°57.34 72.9 13.2 67 10
2003-05-07 07:45:22 51°19.51 2°57.37 72.9 13.3 67 10
2003-05-07 07:45:28 51°19.52 2°57.4 72.8 13.3 67 10
2003-05-07 07:45:32 51°19.52 2°57.42 72.9 13.3 67 10
2003-05-07 07:45:36 51°19.53 2°57.44 72.6 13.3 66 10
2003-05-07 07:45:42 51°19.54 2°57.48 72.4 13.3 67 10
2003-05-07 07:45:48 51°19.55 2°57.51 72.4 13.3 66 10
2003-05-07 07:45:52 51°19.55 2°57.53 72.3 13.2 67 10
2003-05-07 07:45:58 51°19.56 2°57.56 72.1 13.3 66 9.9
2003-05-07 07:46:02 51°19.57 2°57.58 71.8 13.4 66 9.9
2003-05-07 07:46:08 51°19.58 2°57.62 71.8 13.3 66 10
2003-05-07 07:46:12 51°19.58 2°57.64 71.6 13.3 65 10
2003-05-07 07:46:16 51°19.59 2°57.66 71.8 13.3 66 10
2003-05-07 07:46:22 51°19.6 2°57.69 72.2 13.4 66 9.9
2003-05-07 07:46:28 51°19.61 2°57.73 72.6 13.4 66 9.9
2003-05-07 07:46:32 51°19.61 2°57.75 72.6 13.4 67 9.9
2003-05-07 07:46:36 51°19.62 2°57.77 72.6 13.3 66 9.9
2003-05-07 07:46:42 51°19.63 2°57.8 72.6 13.3 66 9.9
2003-05-07 07:46:48 51°19.64 2°57.83 72.2 13.3 67 9.9
2003-05-07 07:46:52 51°19.64 2°57.85 72 13.2 66 9.8
2003-05-07 07:46:56 51°19.65 2°57.88 72 13.4 66 9.9
2003-05-07 07:47:02 51°19.66 2°57.91 72 13.4 66 9.9
2003-05-07 07:47:08 51°19.66 2°57.94 73.1 13.4 67 9.9
2003-05-07 07:47:12 51°19.67 2°57.96 73.8 13.4 69 9.8
2003-05-07 07:47:16 51°19.67 2°57.99 74.8 13.3 69 9.9
2003-05-07 07:47:22 51°19.68 2°58.02 76 13.3 70 9.8
2003-05-07 07:47:28 51°19.69 2°58.05 76.6 13.3 71 9.8
2003-05-07 07:47:32 51°19.69 2°58.08 76.8 13.3 71 9.8
2003-05-07 07:47:36 51°19.7 2°58.1 76.9 13.3 71 9.8
2003-05-07 07:47:42 51°19.71 2°58.13 77 13.2 71 9.7
2003-05-07 07:47:48 51°19.71 2°58.17 77.3 13.3 71 9.7
2003-05-07 07:47:52 51°19.72 2°58.19 76.4 13.4 70 9.8
2003-05-07 07:47:56 51°19.72 2°58.21 75.9 13.3 70 9.7
2003-05-07 07:48:02 51°19.73 2°58.24 75.4 13.3 68 9.8
2003-05-07 07:48:08 51°19.74 2°58.28 74.6 13.3 68 9.7
2003-05-07 07:48:12 51°19.75 2°58.3 74.1 13.3 68 9.7
2003-05-07 07:48:16 51°19.75 2°58.32 74 13.4 67 9.7
2003-05-07 07:48:22 51°19.76 2°58.35 74 13.3 69 9.7
2003-05-07 07:48:28 51°19.77 2°58.39 74.3 13.2 68 9.7
2003-05-07 07:48:32 51°19.77 2°58.41 74.9 13.3 70 9.7
2003-05-07 07:48:36 51°19.78 2°58.43 75.3 13.3 69 9.6
2003-05-07 07:48:42 51°19.79 2°58.46 75.6 13.4 70 9.6
2003-05-07 07:48:48 51°19.79 2°58.5 75.7 13.4 70 9.6
2003-05-07 07:48:52 51°19.8 2°58.52 75.9 13.3 70 9.7
2003-05-07 07:48:56 51°19.8 2°58.54 76.6 13.2 71 9.6
2003-05-07 07:49:02 51°19.81 2°58.57 76.3 13.3 70 9.6
2003-05-07 07:49:08 51°19.82 2°58.61 75.6 13.3 69 9.7
2003-05-07 07:49:12 51°19.82 2°58.63 75.4 13.2 69 9.7
2003-05-07 07:49:16 51°19.83 2°58.65 75.2 13.3 69 9.6
2003-05-07 07:49:22 51°19.84 2°58.68 74.7 13.4 68 9.7
2003-05-07 07:49:28 51°19.85 2°58.72 74.1 13.3 68 9.6
2003-05-07 07:49:32 51°19.85 2°58.74 73.7 13.2 67 9.6
2003-05-07 07:49:36 51°19.86 2°58.76 73.5 13.2 67 9.6
2003-05-07 07:49:42 51°19.87 2°58.79 73.2 13.3 66 9.6
2003-05-07 07:49:48 51°19.87 2°58.82 72.8 13.3 66 9.5
2003-05-07 07:49:52 51°19.88 2°58.85 73.2 13.3 67 9.5
2003-05-07 07:49:56 51°19.89 2°58.87 73.8 13.2 68 9.5
2003-05-07 07:50:02 51°19.89 2°58.9 75.7 13.2 70 9.5
2003-05-07 07:50:08 51°19.9 2°58.93 77.7 13.1 72 9.5
2003-05-07 07:50:12 51°19.91 2°58.95 79 13.1 73 9.5
2003-05-07 07:50:16 51°19.91 2°58.98 79.5 13.1 73 9.5
2003-05-07 07:50:22 51°19.92 2°59.01 80.5 13 74 9.5
2003-05-07 07:50:28 51°19.92 2°59.04 80.5 13 74 9.4
2003-05-07 07:50:32 51°19.93 2°59.07 80.3 13.1 74 9.4
2003-05-07 07:50:36 51°19.93 2°59.09 79.2 13.1 72 9.4
2003-05-07 07:50:42 51°19.94 2°59.12 78 13.1 72 9.4
2003-05-07 07:50:48 51°19.94 2°59.15 77 13 69 9.4
2003-05-07 07:50:52 51°19.95 2°59.18 76.4 13 70 9.3
2003-05-07 07:50:56 51°19.95 2°59.2 75.8 13 69 9.3
2003-05-07 07:51:02 51°19.96 2°59.23 75.8 13 69 9.4
2003-05-07 07:51:08 51°19.97 2°59.26 76.2 13.1 69 9.4
2003-05-07 07:51:12 51°19.97 2°59.28 76.1 13.1 70 9.3
2003-05-07 07:51:16 51°19.98 2°59.31 76.2 13.1 70 9.3
2003-05-07 07:51:22 51°19.99 2°59.34 76.5 13.1 69 9.3
2003-05-07 07:51:28 51°19.99 2°59.37 76.9 13 69 9.3
2003-05-07 07:51:32 51°20 2°59.39 77.2 13 70 9.2
2003-05-07 07:51:36 51°20 2°59.41 77.1 13 70 9.2
2003-05-07 07:51:42 51°20.01 2°59.45 77 13 71 9.2
2003-05-07 07:51:48 51°20.02 2°59.48 76.4 13.1 69 9.2
2003-05-07 07:51:52 51°20.02 2°59.5 76.2 13 70 9.3
2003-05-07 07:51:56 51°20.03 2°59.52 76.2 13 69 9.2
2003-05-07 07:52:02 51°20.04 2°59.55 76.2 13.1 70 9.2
2003-05-07 07:52:08 51°20.04 2°59.59 75.7 13 69 9.3
2003-05-07 07:52:12 51°20.05 2°59.61 76.2 13 69 9.3
2003-05-07 07:52:16 51°20.05 2°59.63 77 12.9 70 9.2
2003-05-07 07:52:22 51°20.06 2°59.66 77.3 13 71 9.2
2003-05-07 07:52:28 51°20.07 2°59.7 77.3 13 70 9.2
2003-05-07 07:52:32 51°20.07 2°59.72 77 13 71 9.2
2003-05-07 07:52:36 51°20.08 2°59.74 77.1 12.9 69 9.2
2003-05-07 07:52:42 51°20.08 2°59.77 77.2 12.9 71 9.2
2003-05-07 07:52:48 51°20.09 2°59.8 76.9 13.1 70 9.2
2003-05-07 07:52:52 51°20.1 2°59.83 76.2 13 70 9.2
2003-05-07 07:52:56 51°20.1 2°59.85 75.8 13 69 9.1
2003-05-07 07:53:02 51°20.11 2°59.88 75.8 12.9 69 9.2
2003-05-07 07:53:08 51°20.12 2°59.91 76.2 13 71 9.1
2003-05-07 07:53:12 51°20.12 2°59.93 76.3 13 70 9.1
2003-05-07 07:53:16 51°20.13 2°59.95 76.4 12.9 70 9.2
2003-05-07 07:53:22 51°20.13 2°59.99 76.2 13 69 9.1
2003-05-07 07:53:28 51°20.14 3°0.02 76.3 13 69 9
2003-05-07 07:53:32 51°20.15 3°0.04 76.2 12.9 70 9
2003-05-07 07:53:36 51°20.15 3°0.06 76.2 12.9 69 9
2003-05-07 07:53:42 51°20.16 3°0.09 76.2 12.9 70 9.1
2003-05-07 07:53:48 51°20.17 3°0.13 75.8 12.9 68 9
2003-05-07 07:53:52 51°20.17 3°0.15 75.4 12.9 69 9
2003-05-07 07:53:56 51°20.18 3°0.17 75.3 12.8 69 9
2003-05-07 07:54:02 51°20.18 3°0.2 75.4 12.9 69 8.9
2003-05-07 07:54:08 51°20.19 3°0.23 76.2 12.9 71 8.8
2003-05-07 07:54:12 51°20.2 3°0.25 76.5 13 69 9
2003-05-07 07:54:16 51°20.2 3°0.28 77.2 12.9 72 8.9
2003-05-07 07:54:22 51°20.21 3°0.31 77.6 12.8 71 8.9
2003-05-07 07:54:28 51°20.22 3°0.34 78.2 12.7 72 8.9
2003-05-07 07:54:32 51°20.22 3°0.36 78.6 12.8 72 8.9
2003-05-07 07:54:36 51°20.22 3°0.38 78.6 12.8 72 8.9
2003-05-07 07:54:42 51°20.23 3°0.42 78.6 12.8 72 8.8
2003-05-07 07:54:48 51°20.24 3°0.45 78.4 12.8 73 8.9
2003-05-07 07:54:52 51°20.24 3°0.47 77.6 12.8 70 8.8
2003-05-07 07:54:56 51°20.25 3°0.49 77.2 12.8 69 8.8
2003-05-07 07:55:02 51°20.25 3°0.52 76.1 12.8 70 8.8
2003-05-07 07:55:08 51°20.26 3°0.56 74.8 12.8 67 8.8
2003-05-07 07:55:12 51°20.27 3°0.58 74.3 12.8 68 8.8
2003-05-07 07:55:16 51°20.27 3°0.6 74.4 12.8 67 8.8
2003-05-07 07:55:22 51°20.28 3°0.63 74.2 12.8 69 8.8
2003-05-07 07:55:28 51°20.29 3°0.66 74.9 12.7 70 8.8
2003-05-07 07:55:32 51°20.29 3°0.68 75.4 12.8 69 8.8
2003-05-07 07:55:36 51°20.3 3°0.7 75.7 12.8 70 8.8
2003-05-07 07:55:42 51°20.31 3°0.74 76.3 12.8 70 8.8
2003-05-07 07:55:48 51°20.31 3°0.77 76.9 12.8 71 8.8
2003-05-07 07:55:52 51°20.32 3°0.79 77 12.8 71 8.8
2003-05-07 07:55:56 51°20.32 3°0.81 77 12.8 71 8.8
2003-05-07 07:56:02 51°20.33 3°0.84 76.5 12.8 69 8.8
2003-05-07 07:56:08 51°20.34 3°0.87 75.8 12.8 70 8.8
2003-05-07 07:56:12 51°20.34 3°0.9 75.1 12.8 68 8.7
2003-05-07 07:56:16 51°20.35 3°0.92 75.1 12.7 69 8.8
2003-05-07 07:56:22 51°20.35 3°0.95 75.2 12.8 70 8.8
2003-05-07 07:56:28 51°20.36 3°0.98 75.5 12.8 69 8.8
2003-05-07 07:56:32 51°20.37 3°1 76.2 12.7 71 8.8
2003-05-07 07:56:36 51°20.37 3°1.02 77 12.8 72 8.8
2003-05-07 07:56:42 51°20.38 3°1.06 78.1 12.8 72 8.8
2003-05-07 07:56:48 51°20.38 3°1.09 78.8 12.8 73 8.7
2003-05-07 07:56:52 51°20.39 3°1.11 78.9 12.8 74 9
2003-05-07 07:56:56 51°20.39 3°1.13 78.6 12.8 72 8.9
2003-05-07 07:57:02 51°20.4 3°1.16 78.3 12.8 73 9
2003-05-07 07:57:08 51°20.41 3°1.2 77.2 12.8 70 8.9
2003-05-07 07:57:12 51°20.41 3°1.22 75.9 12.9 70 8.8
2003-05-07 07:57:16 51°20.42 3°1.24 74.2 12.8 68 8.9
2003-05-07 07:57:22 51°20.42 3°1.27 73.6 12.8 67 8.8
2003-05-07 07:57:28 51°20.43 3°1.3 73.5 12.8 67 8.8
2003-05-07 07:57:32 51°20.44 3°1.32 73.6 12.8 69 8.8
2003-05-07 07:57:36 51°20.44 3°1.34 74.4 12.8 69 8.8
2003-05-07 07:57:42 51°20.45 3°1.38 75.4 12.8 70 8.9
2003-05-07 07:57:48 51°20.46 3°1.41 76.9 12.8 72 8.9
2003-05-07 07:57:52 51°20.46 3°1.43 77.8 12.8 73 8.9
2003-05-07 07:57:56 51°20.46 3°1.45 78.4 12.7 73 8.8
2003-05-07 07:58:02 51°20.47 3°1.48 78.7 12.7 73 8.8
2003-05-07 07:58:08 51°20.48 3°1.52 78.3 12.7 72 8.8
2003-05-07 07:58:12 51°20.48 3°1.54 77.4 12.7 71 8.8
2003-05-07 07:58:16 51°20.49 3°1.56 76.8 12.8 71 8.8
2003-05-07 07:58:22 51°20.49 3°1.59 76.1 12.8 70 8.8
2003-05-07 07:58:28 51°20.5 3°1.62 75.4 12.7 69 8.9
2003-05-07 07:58:32 51°20.51 3°1.64 75.3 12.8 71 8.9
2003-05-07 07:58:36 51°20.51 3°1.66 75.4 12.8 69 8.8
2003-05-07 07:58:42 51°20.52 3°1.7 76.5 12.7 72 8.8
2003-05-07 07:58:48 51°20.52 3°1.73 77.2 12.8 73 8.8
2003-05-07 07:58:52 51°20.53 3°1.75 77.5 12.8 71 8.8
2003-05-07 07:58:56 51°20.53 3°1.77 78 12.8 74 8.8
2003-05-07 07:59:02 51°20.54 3°1.8 77.9 12.8 71 8.9
2003-05-07 07:59:08 51°20.55 3°1.84 77.6 12.7 72 8.9
2003-05-07 07:59:12 51°20.55 3°1.86 77.2 12.7 71 8.8
2003-05-07 07:59:16 51°20.56 3°1.88 76.2 12.9 69 8.8
2003-05-07 07:59:22 51°20.56 3°1.91 75.2 12.8 69 8.8
2003-05-07 07:59:28 51°20.57 3°1.94 74.8 12.8 69 8.9
2003-05-07 07:59:32 51°20.58 3°1.96 74.7 12.8 70 8.9
2003-05-07 07:59:36 51°20.58 3°1.99 75.3 12.7 69 8.9
2003-05-07 07:59:42 51°20.59 3°2.02 76.2 12.7 72 8.9
2003-05-07 07:59:48 51°20.59 3°2.05 76.8 12.7 71 8.8
2003-05-07 07:59:52 51°20.6 3°2.07 77.7 12.7 74 8.9
2003-05-07 07:59:56 51°20.6 3°2.09 78 12.8 73 8.9
2003-05-07 08:00:02 51°20.61 3°2.12 78.3 12.7 73 8.8
2003-05-07 08:00:08 51°20.62 3°2.16 78.3 12.7 73 8.9
2003-05-07 08:00:12 51°20.62 3°2.18 78 12.8 72 8.8
2003-05-07 08:00:16 51°20.62 3°2.2 76.9 12.8 71 8.9
2003-05-07 08:00:22 51°20.63 3°2.23 76.2 12.8 70 8.9
2003-05-07 08:00:28 51°20.64 3°2.26 75.3 12.8 68 8.9
2003-05-07 08:00:32 51°20.64 3°2.28 74.8 12.8 70 8.9
2003-05-07 08:00:36 51°20.65 3°2.31 73.9 12.8 67 8.8
2003-05-07 08:00:42 51°20.66 3°2.34 73.5 12.8 68 8.9
2003-05-07 08:00:48 51°20.66 3°2.37 73.3 12.7 67 8.9
2003-05-07 08:00:52 51°20.67 3°2.39 73.9 12.7 68 8.9
2003-05-07 08:00:56 51°20.67 3°2.41 74.7 12.8 70 8.9
2003-05-07 08:01:02 51°20.68 3°2.44 76.1 12.8 70 8.9
2003-05-07 08:01:08 51°20.69 3°2.47 76.6 12.8 71 8.9
2003-05-07 08:01:12 51°20.69 3°2.5 77.1 12.7 72 8.9
2003-05-07 08:01:16 51°20.7 3°2.52 78.1 12.7 73 8.9
2003-05-07 08:01:22 51°20.7 3°2.55 78.6 12.8 72 8.9
2003-05-07 08:01:28 51°20.71 3°2.58 78.9 12.8 72 8.9
2003-05-07 08:01:32 51°20.71 3°2.6 77.7 12.8 72 8.9
2003-05-07 08:01:36 51°20.72 3°2.63 77.2 12.7 70 8.9
2003-05-07 08:01:42 51°20.73 3°2.66 76.2 12.7 70 8.9
2003-05-07 08:01:48 51°20.73 3°2.69 75.2 12.8 68 8.9
2003-05-07 08:01:52 51°20.74 3°2.71 74.8 12.7 69 8.9
2003-05-07 08:01:56 51°20.74 3°2.73 74.4 12.7 70 8.9
2003-05-07 08:02:02 51°20.75 3°2.76 74.1 12.8 68 8.9
2003-05-07 08:02:08 51°20.76 3°2.79 74.1 12.7 70 8.9
2003-05-07 08:02:12 51°20.76 3°2.82 75.2 12.7 69 9
2003-05-07 08:02:16 51°20.77 3°2.84 76.2 12.7 71 9
2003-05-07 08:02:22 51°20.78 3°2.87 76.9 12.8 72 8.9
2003-05-07 08:02:28 51°20.78 3°2.9 77.2 12.8 73 8.9
2003-05-07 08:02:32 51°20.79 3°2.92 77.6 12.7 71 8.9
2003-05-07 08:02:36 51°20.79 3°2.94 77.9 12.7 73 9
2003-05-07 08:02:42 51°20.8 3°2.98 77.7 12.7 72 9
2003-05-07 08:02:48 51°20.8 3°3.01 77.6 12.7 72 8.9
2003-05-07 08:02:52 51°20.81 3°3.03 77 12.7 71 8.9
2003-05-07 08:02:56 51°20.81 3°3.05 76 12.7 70 8.9
2003-05-07 08:03:02 51°20.82 3°3.08 76 12.7 71 8.9
2003-05-07 08:03:08 51°20.83 3°3.12 76.1 12.8 71 8.9
2003-05-07 08:03:12 51°20.83 3°3.14 75.7 12.8 69 8.9
2003-05-07 08:03:16 51°20.84 3°3.16 75.4 12.7 69 8.9
2003-05-07 08:03:22 51°20.84 3°3.19 75.7 12.7 71 8.9
2003-05-07 08:03:28 51°20.85 3°3.22 76.3 12.8 70 8.9
2003-05-07 08:03:32 51°20.85 3°3.24 76.7 12.8 73 8.9
2003-05-07 08:03:36 51°20.86 3°3.26 76.9 12.7 71 8.9
2003-05-07 08:03:42 51°20.87 3°3.3 77.7 12.7 74 8.9
2003-05-07 08:03:48 51°20.87 3°3.33 77.7 12.7 72 8.9
2003-05-07 08:03:52 51°20.88 3°3.35 78.1 12.7 74 8.9
2003-05-07 08:03:56 51°20.88 3°3.37 78.1 12.8 73 8.9
2003-05-07 08:04:02 51°20.89 3°3.4 78.1 12.7 73 8.9
2003-05-07 08:04:08 51°20.89 3°3.44 77.7 12.7 73 8.9
2003-05-07 08:04:12 51°20.9 3°3.46 77.6 12.7 72 8.8
2003-05-07 08:04:16 51°20.9 3°3.48 76.9 12.8 71 8.8
2003-05-07 08:04:22 51°20.91 3°3.51 76 12.8 70 8.9
2003-05-07 08:04:28 51°20.92 3°3.54 75.4 12.7 70 8.9
2003-05-07 08:04:32 51°20.92 3°3.56 74.8 12.7 69 8.9
2003-05-07 08:04:36 51°20.93 3°3.59 75.1 12.7 71 8.9
2003-05-07 08:04:42 51°20.93 3°3.62 75.4 12.7 69 8.9
2003-05-07 08:04:48 51°20.94 3°3.65 76.2 12.7 71 8.9
2003-05-07 08:04:52 51°20.94 3°3.67 76.2 12.8 71 9.1
2003-05-07 08:04:56 51°20.95 3°3.69 76.7 12.7 71 9
2003-05-07 08:05:02 51°20.96 3°3.72 76.9 12.8 72 8.9
2003-05-07 08:05:08 51°20.96 3°3.76 76.3 12.9 70 8.9
2003-05-07 08:05:12 51°20.97 3°3.78 75.6 12.5 71 9
2003-05-07 08:05:16 51°20.97 3°3.8 75.7 12.1 69 8.9
2003-05-07 08:05:22 51°20.98 3°3.83 75.4 11.8 71 8.8
2003-05-07 08:05:28 51°20.99 3°3.86 75.3 11.2 69 8.8
2003-05-07 08:05:32 51°20.99 3°3.87 75.3 10.9 71 9
2003-05-07 08:05:36 51°20.99 3°3.89 75.6 10.1 70 9.1
2003-05-07 08:05:42 51°21 3°3.92 75.9 9.4 71 9.4
2003-05-07 08:05:48 51°21 3°3.94 76 8.7 70 9.3
2003-05-07 08:05:52 51°21.01 3°3.95 76.2 8.2 72 9.4
2003-05-07 08:05:56 51°21.01 3°3.96 76.9 7.5 71 9.4
2003-05-07 08:06:02 51°21.01 3°3.98 78.1 7.1 74 9.3
2003-05-07 08:06:08 51°21.02 3°4 79.5 6.1 75 9.3
2003-05-07 08:06:12 51°21.02 3°4.01 82.1 5.5 77 9.3
2003-05-07 08:06:16 51°21.02 3°4.02 83.4 4.8 80 9.3
2003-05-07 08:06:22 51°21.02 3°4.03 81.2 4.4 72 9.3
2003-05-07 08:06:28 51°21.02 3°4.04 76.2 3.8 68 9.3
2003-05-07 08:06:32 51°21.02 3°4.04 71.5 3.6 61 9.3
2003-05-07 08:06:36 51°21.03 3°4.05 66.6 3.3 55 9.4
2003-05-07 08:06:42 51°21.03 3°4.05 62 3 49 9.4
2003-05-07 08:06:48 51°21.03 3°4.06 57.6 2.6 43 9.4
2003-05-07 08:06:52 51°21.04 3°4.06 53 2.5 36 9.4
2003-05-07 08:06:56 51°21.04 3°4.06 48.3 2.3 25 9.5
2003-05-07 08:07:02 51°21.04 3°4.07 44.1 2 21 9.4
2003-05-07 08:07:08 51°21.04 3°4.07 39.6 1.9 12 9.4
2003-05-07 08:07:12 51°21.05 3°4.07 35.4 1.8 3 9.4
2003-05-07 08:07:16 51°21.05 3°4.07 31.2 1.5 350 9.4
2003-05-07 08:07:22 51°21.05 3°4.07 26.9 1.6 345 9.4
2003-05-07 08:07:28 51°21.05 3°4.07 23.2 1.5 339 9.4
2003-05-07 08:07:32 51°21.05 3°4.06 19.9 1.6 335 9.4
2003-05-07 08:07:36 51°21.05 3°4.06 17 1.4 328 9.4
2003-05-07 08:07:42 51°21.06 3°4.06 14.7 1.3 324 9.4
2003-05-07 08:07:48 51°21.06 3°4.06 12.4 1.4 322 9.5
2003-05-07 08:07:52 51°21.06 3°4.06 10.6 1.2 317 9.5
2003-05-07 08:07:56 51°21.06 3°4.06 8.7 1.4 318 9.4
2003-05-07 08:08:02 51°21.06 3°4.06 6.8 1.1 315 9.4
2003-05-07 08:08:08 51°21.06 3°4.05 5 1.3 313 9.4
2003-05-07 08:08:12 51°21.06 3°4.05 3.4 1.2 317 9.4
2003-05-07 08:08:16 51°21.06 3°4.05 2.1 1.3 308 9.5
2003-05-07 08:08:22 51°21.07 3°4.05 0.7 1.2 310 9.4
2003-05-07 08:08:28 51°21.07 3°4.04 359.4 1.3 308 9.5
2003-05-07 08:08:32 51°21.07 3°4.04 358.1 1.2 310 9.5
2003-05-07 08:08:36 51°21.07 3°4.04 356.9 1.3 304 9.5
2003-05-07 08:08:42 51°21.07 3°4.04 355.8 1.3 304 9.5
2003-05-07 08:08:48 51°21.07 3°4.03 354.7 1.2 304 9.5
2003-05-07 08:08:52 51°21.07 3°4.03 353.5 1.3 304 9.5
2003-05-07 08:08:56 51°21.07 3°4.03 352.4 1.3 301 9.5
2003-05-07 08:09:02 51°21.07 3°4.03 351.4 1.2 304 9.5
2003-05-07 08:09:08 51°21.08 3°4.02 350.5 1.3 302 9.5
2003-05-07 08:09:12 51°21.08 3°4.02 349.5 1.2 300 9.5
2003-05-07 08:09:16 51°21.08 3°4.02 348.6 1.3 301 9.5
2003-05-07 08:09:22 51°21.08 3°4.02 347.8 1.3 297 9.5
2003-05-07 08:09:28 51°21.08 3°4.01 346.9 1.3 295 9.5
2003-05-07 08:09:32 51°21.08 3°4.01 346.2 1.3 298 9.5
2003-05-07 08:09:36 51°21.08 3°4.01 345.4 1.3 294 9.5
2003-05-07 08:09:42 51°21.08 3°4.01 344.6 1.2 297 9.5
2003-05-07 08:09:48 51°21.08 3°4 344 1.3 290 9.5
2003-05-07 08:09:52 51°21.08 3°4 343.3 1.3 295 9.5
2003-05-07 08:09:56 51°21.08 3°4 342.7 1.3 289 9.6
2003-05-07 08:10:02 51°21.08 3°4 342.2 1.2 291 9.5
2003-05-07 08:10:08 51°21.08 3°3.99 341.7 1.2 291 9.6
2003-05-07 08:10:12 51°21.08 3°3.99 341.1 1.2 291 9.5
2003-05-07 08:10:16 51°21.09 3°3.99 340.5 1.3 289 9.6
2003-05-07 08:10:22 51°21.09 3°3.99 340.1 1.2 291 9.6
2003-05-07 08:10:28 51°21.09 3°3.98 339.5 1.3 290 9.5
2003-05-07 08:10:32 51°21.09 3°3.98 338.9 1.2 294 9.5
2003-05-07 08:10:36 51°21.09 3°3.98 338.6 1.2 290 9.5
2003-05-07 08:10:42 51°21.09 3°3.97 338 1.2 295 9.5
2003-05-07 08:10:48 51°21.09 3°3.97 337.5 1.3 291 9.5
2003-05-07 08:10:52 51°21.09 3°3.97 337.1 1.2 289 9.5
2003-05-07 08:10:56 51°21.09 3°3.97 336.6 1.3 288 9.6
2003-05-07 08:11:02 51°21.09 3°3.96 336.1 1.2 294 9.5
2003-05-07 08:11:08 51°21.09 3°3.96 335.7 1.2 285 9.5
2003-05-07 08:11:12 51°21.09 3°3.96 335.2 1.2 288 9.5
2003-05-07 08:11:16 51°21.09 3°3.96 334.8 1.3 283 9.6
2003-05-07 08:11:22 51°21.09 3°3.95 334.2 1.2 292 9.6
2003-05-07 08:11:28 51°21.09 3°3.95 333.8 1.2 284 9.6
2003-05-07 08:11:32 51°21.09 3°3.95 333.3 1.1 285 9.6
2003-05-07 08:11:36 51°21.09 3°3.95 332.9 1.3 281 9.5
2003-05-07 08:11:42 51°21.09 3°3.94 332.4 1.1 288 9.6
2003-05-07 08:11:48 51°21.09 3°3.94 331.9 1.3 282 9.5
2003-05-07 08:11:52 51°21.09 3°3.94 331.5 1.1 285 9.5
2003-05-07 08:11:56 51°21.09 3°3.94 331 1.3 280 9.6
2003-05-07 08:12:02 51°21.09 3°3.93 330.6 1.1 287 9.6
2003-05-07 08:12:08 51°21.09 3°3.93 330.2 1.2 275 9.6
2003-05-07 08:12:12 51°21.09 3°3.93 329.6 1.1 288 9.6
2003-05-07 08:12:16 51°21.09 3°3.92 329.3 1.3 276 9.6
2003-05-07 08:12:22 51°21.1 3°3.92 328.8 1.1 283 9.6
2003-05-07 08:12:28 51°21.1 3°3.92 328.3 1.2 273 9.6
2003-05-07 08:12:32 51°21.1 3°3.92 328 1.2 283 9.6
2003-05-07 08:12:36 51°21.1 3°3.91 327.3 1.1 279 9.6
2003-05-07 08:12:42 51°21.1 3°3.91 327.1 1.3 276 9.6